Ukiah Municipal Airport
KUKI : rendu visible

Aérodrome :











RETROUVEZ-NOUS SUR...

 
LOGIN :

S'inscrire | Disclaimer

   EN    FR    IT 

 









Légende :    VFR   VFR Marginal   IFR   IFR Intensif   IFR Très Intensif
Visi : 
Plafond : 
>= 8 km
>= 3000ft
5 à 8 km
1000 à 3000 ft
1500m à 5 km
500 à 1000 ft
800 à 1500m
200 à 500 ft
< 800m
< 200 ft
Symboles :   Orages  Brouillard  Fortes neiges  Fortes précipitations  Vent > 20 kt






- Altitude de l'aérodrome : 614 ft


KUKI - Ukiah Municipal

DERNIER METAR :
  • 040656Z AUTO 00000KT 10SM CLR 21/11 A2989 RMK AO2 SLP111 T02110111

METARs EXPIRÉS :
  • 040556Z AUTO 00000KT 10SM CLR 23/10 A2990 RMK AO2 SLP115 T02280100 10356 20228 51004
  • 040456Z AUTO 00000KT 10SM CLR 23/11 A2990 RMK AO2 SLP115 T02330106

TAF KUKI
Valide du 04 à 07h jusqu'au 05 à 06h UTC


040704Z 0407/0506 00000KT P6SM SKC
FM041900 VRB05KT P6SM SCT250
FM042100 29008KT P6SM SCT250
FM050300 VRB04KT P6SM SCT250
FIR KZOA / Amérique du Nord



MET'MAP, la Météo Aéronautique d'un coup d'oeil ! - Copyright ORBIFLY Décembre 2007 - Disclaimer

ORBIFLY MET'MAP TEAM :

Programmation & Développement : Alexandra Zaïnal
Sur une idée originale de : Baudouin d'Aumeries
Assistance à la programmation : Marc-Olivier Méhu
Soutien technique & logistique : Manuel Goepfert

Contact : metmap@orbifly.com




SOURCES & CREDITS :

   NOAA       Earth
Advisory